Time;durP1;ratioP1;P1;durP2;ratioP2;P2;SDS_P1;SDS_P2;PMS_P1;PMS_P2;Temp;Humidity;BMP_temperature;BMP_pressure;BME280_temperature;BME280_humidity;BME280_pressure;Samples;Min_cycle;Max_cycle;Signal;HPM_P1;HPM_P2
2022/07/17 00:01:45;;;;;;;6.70;3.00;;;13.40;99.90;;;;;;4994052;28;20096;-76
2022/07/17 00:04:12;;;;;;;3.58;2.30;;;13.40;99.90;;;;;;4993809;28;20145;-76
2022/07/17 00:06:40;;;;;;;7.38;2.72;;;13.40;99.90;;;;;;4993929;28;20054;-76
2022/07/17 00:09:08;;;;;;;5.25;2.35;;;13.30;99.90;;;;;;4976251;28;20046;-77
2022/07/17 00:11:36;;;;;;;5.55;2.40;;;13.30;99.90;;;;;;4992451;28;20042;-77
2022/07/17 00:14:05;;;;;;;3.25;2.35;;;13.20;99.90;;;;;;4994137;28;20050;-76
2022/07/17 00:16:33;;;;;;;4.88;2.55;;;13.20;99.90;;;;;;4994009;28;20057;-75
2022/07/17 00:19:01;;;;;;;7.28;2.75;;;13.20;99.90;;;;;;4993949;28;20050;-75
2022/07/17 00:21:29;;;;;;;5.60;2.38;;;13.10;99.90;;;;;;4994086;28;20053;-75
2022/07/17 00:23:56;;;;;;;3.92;2.20;;;13.10;99.90;;;;;;4993645;28;20043;-76
2022/07/17 00:26:24;;;;;;;4.90;2.13;;;13.10;99.90;;;;;;4993901;28;20052;-75
2022/07/17 00:28:52;;;;;;;4.68;2.65;;;13.10;99.90;;;;;;4993615;28;20062;-74
2022/07/17 00:31:21;;;;;;;7.07;2.20;;;13.10;99.90;;;;;;4993531;28;20073;-75
2022/07/17 00:33:48;;;;;;;8.32;2.95;;;13.10;99.90;;;;;;4993937;28;20141;-75
2022/07/17 00:36:16;;;;;;;7.15;2.63;;;13.10;99.90;;;;;;4975647;28;20495;-76
2022/07/17 00:38:44;;;;;;;5.30;2.60;;;13.00;99.90;;;;;;4976120;28;20050;-76
2022/07/17 00:41:15;;;;;;;3.78;2.13;;;13.00;99.90;;;;;;4975617;28;20061;-75
2022/07/17 00:43:45;;;;;;;3.97;2.13;;;13.00;99.90;;;;;;4993197;28;20053;-75
2022/07/17 00:46:13;;;;;;;6.43;2.75;;;13.00;99.90;;;;;;4993391;28;20054;-76
2022/07/17 00:48:42;;;;;;;4.78;1.98;;;13.00;99.90;;;;;;4992280;28;20085;-75
2022/07/17 00:51:10;;;;;;;4.80;2.45;;;13.00;99.90;;;;;;4993226;28;20052;-76
2022/07/17 00:53:38;;;;;;;6.55;1.80;;;13.00;99.90;;;;;;4991776;28;20091;-76
2022/07/17 00:56:08;;;;;;;4.25;2.10;;;13.00;99.90;;;;;;4992698;28;20053;-76
2022/07/17 00:58:37;;;;;;;4.03;2.05;;;13.10;99.90;;;;;;4975366;28;20050;-76
2022/07/17 01:01:06;;;;;;;5.28;2.08;;;13.00;99.90;;;;;;4991761;28;20046;-76
2022/07/17 01:03:35;;;;;;;5.05;1.80;;;13.00;99.90;;;;;;4991143;28;20061;-76
2022/07/17 01:06:04;;;;;;;4.40;2.40;;;13.00;99.90;;;;;;4991008;28;20133;-76
2022/07/17 01:08:34;;;;;;;8.88;2.28;;;13.00;99.90;;;;;;4993147;28;20046;-76
2022/07/17 01:11:02;;;;;;;4.20;2.28;;;12.90;99.90;;;;;;4992922;28;20112;-76
2022/07/17 01:13:30;;;;;;;9.18;2.75;;;12.90;99.90;;;;;;4991874;28;20141;-76
2022/07/17 01:15:59;;;;;;;6.13;2.30;;;12.90;99.90;;;;;;4991604;28;20056;-76
2022/07/17 01:18:27;;;;;;;6.07;2.47;;;13.00;99.90;;;;;;4990957;28;20426;-76
2022/07/17 01:20:54;;;;;;;5.47;2.45;;;13.00;99.90;;;;;;4992997;28;20050;-75
2022/07/17 01:23:24;;;;;;;7.57;2.63;;;13.00;99.90;;;;;;4992465;28;20199;-75
2022/07/17 01:25:51;;;;;;;5.32;2.50;;;13.10;99.90;;;;;;4992851;28;20054;-75
2022/07/17 01:28:19;;;;;;;4.28;2.17;;;13.00;99.90;;;;;;4991292;28;20484;-74
2022/07/17 01:30:49;;;;;;;5.38;2.15;;;13.10;99.90;;;;;;4992109;28;20542;-75
2022/07/17 01:33:18;;;;;;;5.35;2.60;;;13.00;99.90;;;;;;4992460;28;20136;-75
2022/07/17 01:35:48;;;;;;;5.70;2.67;;;13.00;99.90;;;;;;4975221;28;20057;-76
2022/07/17 01:38:16;;;;;;;5.68;2.40;;;13.00;99.90;;;;;;4990862;28;20061;-75
2022/07/17 01:40:45;;;;;;;8.40;2.75;;;13.00;99.90;;;;;;4992319;28;20088;-76
2022/07/17 01:43:13;;;;;;;4.38;2.45;;;13.00;99.90;;;;;;4992465;28;20058;-76
2022/07/17 01:45:41;;;;;;;5.15;3.05;;;13.00;99.90;;;;;;4992004;28;20503;-76
2022/07/17 01:48:08;;;;;;;6.60;3.05;;;13.10;99.90;;;;;;4974558;28;20057;-76
2022/07/17 01:50:36;;;;;;;5.53;2.35;;;13.10;99.90;;;;;;4992330;28;20057;-76
2022/07/17 01:53:04;;;;;;;3.95;2.58;;;13.10;99.90;;;;;;4974246;28;20403;-76
2022/07/17 01:55:32;;;;;;;4.72;2.75;;;13.10;99.90;;;;;;4990451;28;20506;-76
2022/07/17 01:58:01;;;;;;;7.82;2.50;;;13.00;99.90;;;;;;4991262;28;20057;-76
2022/07/17 02:00:29;;;;;;;8.50;2.85;;;13.10;99.90;;;;;;4974580;28;20047;-76
2022/07/17 02:02:56;;;;;;;5.25;2.20;;;13.10;99.90;;;;;;4992050;28;20058;-76
2022/07/17 02:05:24;;;;;;;5.90;2.95;;;13.10;99.90;;;;;;4990606;28;20050;-76
2022/07/17 02:07:52;;;;;;;4.18;2.63;;;13.10;99.90;;;;;;4990509;28;20058;-77
2022/07/17 02:10:20;;;;;;;5.40;3.08;;;13.10;99.90;;;;;;4991363;28;20145;-77
2022/07/17 02:12:48;;;;;;;9.32;2.90;;;13.20;99.90;;;;;;4990451;28;20056;-77
2022/07/17 02:15:37;;;;;;;5.30;3.08;;;13.20;99.90;;;;;;4977206;28;20667;-76
2022/07/17 02:18:05;;;;;;;8.02;2.95;;;13.30;99.90;;;;;;4991528;28;20577;-76
2022/07/17 02:20:32;;;;;;;9.32;3.22;;;13.30;99.90;;;;;;4991631;28;20049;-76
2022/07/17 02:23:00;;;;;;;5.53;3.03;;;13.40;99.90;;;;;;4990363;28;20058;-76
2022/07/17 02:25:28;;;;;;;8.98;3.35;;;13.40;99.90;;;;;;4990695;28;20042;-76
2022/07/17 02:27:57;;;;;;;5.28;3.17;;;13.40;99.90;;;;;;4990321;28;20046;-76
2022/07/17 02:30:25;;;;;;;5.03;3.17;;;13.40;99.90;;;;;;4990561;28;20079;-76
2022/07/17 02:32:54;;;;;;;7.40;3.40;;;13.30;99.90;;;;;;4991010;28;20057;-76
2022/07/17 02:35:21;;;;;;;10.32;3.92;;;13.30;99.90;;;;;;4991208;28;20048;-76
2022/07/17 02:37:49;;;;;;;10.13;3.60;;;13.30;99.90;;;;;;4991312;28;20062;-76
2022/07/17 02:40:17;;;;;;;8.63;3.50;;;13.30;99.90;;;;;;4991699;28;20414;-77
2022/07/17 02:42:44;;;;;;;10.30;4.03;;;13.40;99.90;;;;;;4989833;28;20050;-76
2022/07/17 02:45:12;;;;;;;7.38;3.22;;;13.50;99.90;;;;;;4974020;28;20053;-76
2022/07/17 02:47:40;;;;;;;6.28;3.50;;;13.50;99.90;;;;;;4991138;28;20056;-76
2022/07/17 02:50:11;;;;;;;6.53;3.35;;;13.60;99.90;;;;;;4989616;28;20050;-76
2022/07/17 02:52:38;;;;;;;13.63;7.45;;;13.70;99.90;;;;;;4989939;28;20050;-76
2022/07/17 02:55:08;;;;;;;8.40;4.85;;;13.80;99.90;;;;;;4990910;28;20523;-77
2022/07/17 02:57:36;;;;;;;10.93;5.47;;;13.90;99.90;;;;;;4989724;28;20105;-77
2022/07/17 03:00:07;;;;;;;13.35;4.32;;;13.90;99.90;;;;;;4990899;28;20527;-76
2022/07/17 03:02:35;;;;;;;5.20;3.78;;;14.00;99.90;;;;;;4989598;28;20042;-76
2022/07/17 03:05:03;;;;;;;7.40;3.15;;;14.10;99.90;;;;;;4973620;28;20050;-75
2022/07/17 03:07:32;;;;;;;5.68;3.42;;;14.10;99.90;;;;;;4989430;28;20093;-75
2022/07/17 03:10:00;;;;;;;7.32;3.00;;;14.20;99.90;;;;;;4993815;28;20046;-75
2022/07/17 03:12:28;;;;;;;5.72;4.00;;;14.20;99.90;;;;;;4994756;28;20133;-76
2022/07/17 03:14:56;;;;;;;8.50;3.03;;;14.20;99.90;;;;;;4994292;28;20152;-76
2022/07/17 03:17:24;;;;;;;9.95;3.22;;;14.20;99.90;;;;;;4993940;28;20046;-75
2022/07/17 03:19:52;;;;;;;8.13;3.05;;;14.10;99.90;;;;;;4995180;28;20511;-76
2022/07/17 03:22:20;;;;;;;8.75;3.30;;;14.10;99.90;;;;;;4993980;28;20046;-76
2022/07/17 03:24:49;;;;;;;7.78;3.55;;;14.10;99.90;;;;;;4994949;28;20057;-76
2022/07/17 03:27:19;;;;;;;5.07;3.22;;;14.00;99.90;;;;;;4993851;28;20056;-76
2022/07/17 03:29:47;;;;;;;3.17;2.28;;;14.00;99.90;;;;;;4994783;28;20054;-76
2022/07/17 03:32:15;;;;;;;7.85;2.58;;;13.80;99.90;;;;;;4977195;28;20054;-76
2022/07/17 03:34:43;;;;;;;10.60;3.20;;;13.80;99.90;;;;;;4993083;28;20093;-76
2022/07/17 03:37:10;;;;;;;6.07;2.90;;;13.70;99.90;;;;;;4994724;28;20058;-76
2022/07/17 03:39:38;;;;;;;8.75;3.28;;;13.70;99.90;;;;;;4993100;28;20057;-77
2022/07/17 03:42:07;;;;;;;5.40;2.75;;;13.70;99.90;;;;;;4994187;28;20078;-76
2022/07/17 03:44:35;;;;;;;5.60;2.75;;;13.70;99.90;;;;;;4992546;28;20054;-77
2022/07/17 03:47:03;;;;;;;7.25;2.20;;;13.70;99.90;;;;;;4993123;28;20046;-76
2022/07/17 03:49:31;;;;;;;6.72;2.60;;;13.70;99.90;;;;;;4993308;28;20541;-77
2022/07/17 03:51:58;;;;;;;5.43;2.50;;;13.70;99.90;;;;;;4995684;28;20529;-75
2022/07/17 03:54:26;;;;;;;4.40;2.70;;;13.70;99.90;;;;;;4994994;28;20108;-75
2022/07/17 03:56:54;;;;;;;5.30;2.65;;;13.70;99.90;;;;;;4993824;28;20050;-75
2022/07/17 03:59:23;;;;;;;7.00;2.53;;;13.70;99.90;;;;;;4993592;28;20106;-76
2022/07/17 04:01:51;;;;;;;7.50;3.13;;;13.70;99.90;;;;;;4993414;28;20054;-76
2022/07/17 04:04:19;;;;;;;8.70;3.78;;;13.70;99.90;;;;;;4993999;28;20047;-76
2022/07/17 04:06:46;;;;;;;4.93;2.58;;;13.70;99.90;;;;;;4991878;28;20097;-76
2022/07/17 04:09:14;;;;;;;7.18;3.20;;;13.80;99.90;;;;;;4975752;28;20054;-75
2022/07/17 04:11:42;;;;;;;7.40;2.38;;;13.80;99.90;;;;;;4993617;28;20088;-76
2022/07/17 04:14:09;;;;;;;6.10;2.55;;;13.80;99.90;;;;;;4992782;28;20070;-75
2022/07/17 04:16:38;;;;;;;4.38;2.60;;;13.90;99.90;;;;;;4993328;28;20073;-76
2022/07/17 04:19:06;;;;;;;3.92;2.20;;;13.90;99.90;;;;;;4991920;28;20081;-74
2022/07/17 04:21:34;;;;;;;5.60;2.80;;;14.00;99.90;;;;;;4992040;28;20426;-75
2022/07/17 04:24:01;;;;;;;6.05;2.88;;;14.00;99.90;;;;;;4976181;28;20141;-75
2022/07/17 04:26:29;;;;;;;5.30;2.60;;;14.10;99.90;;;;;;4960209;28;20093;-75
2022/07/17 04:28:57;;;;;;;7.13;2.45;;;14.20;99.90;;;;;;4993701;28;20060;-76
2022/07/17 04:31:25;;;;;;;5.78;2.55;;;14.30;99.90;;;;;;4993939;28;20090;-76
2022/07/17 04:33:54;;;;;;;5.03;2.45;;;14.40;99.90;;;;;;4993822;28;20519;-78
2022/07/17 04:36:22;;;;;;;4.70;3.10;;;14.40;99.90;;;;;;4991727;28;20113;-74
2022/07/17 04:38:50;;;;;;;3.65;2.22;;;14.50;99.90;;;;;;4976409;28;20519;-74
2022/07/17 04:41:18;;;;;;;4.72;2.70;;;14.50;99.90;;;;;;4991989;28;20489;-75
2022/07/17 04:43:46;;;;;;;9.55;2.83;;;14.60;99.90;;;;;;4975743;28;20136;-75
2022/07/17 04:46:13;;;;;;;7.18;2.40;;;14.70;99.90;;;;;;4991318;28;20093;-75
2022/07/17 04:48:41;;;;;;;3.90;2.17;;;14.80;99.90;;;;;;4992024;28;20058;-77
2022/07/17 04:51:10;;;;;;;3.45;2.28;;;14.90;99.90;;;;;;4974737;28;20046;-76
2022/07/17 04:53:38;;;;;;;2.05;1.85;;;14.90;99.90;;;;;;4992623;28;20046;-76
2022/07/17 04:56:06;;;;;;;4.10;2.30;;;15.00;99.90;;;;;;4992411;28;20050;-76
2022/07/17 04:58:34;;;;;;;5.38;2.25;;;15.10;99.90;;;;;;4993134;28;20066;-76
2022/07/17 05:01:02;;;;;;;4.93;2.20;;;15.20;99.90;;;;;;4992464;28;20051;-76
2022/07/17 05:03:30;;;;;;;3.03;2.22;;;15.20;99.90;;;;;;4991458;28;20058;-76
2022/07/17 05:05:58;;;;;;;3.22;1.73;;;15.30;99.90;;;;;;4991185;28;20141;-76
2022/07/17 05:08:27;;;;;;;2.75;2.30;;;15.40;99.90;;;;;;4992690;28;20051;-76
2022/07/17 05:10:54;;;;;;;3.63;1.60;;;15.50;99.90;;;;;;4992782;28;20145;-76
2022/07/17 05:13:22;;;;;;;5.53;2.25;;;15.60;99.90;;;;;;4992484;28;20053;-76
2022/07/17 05:15:50;;;;;;;3.47;1.60;;;15.60;99.90;;;;;;4992933;28;20062;-76
2022/07/17 05:18:18;;;;;;;4.35;1.92;;;15.70;99.90;;;;;;4992374;28;20066;-75
2022/07/17 05:20:46;;;;;;;2.45;2.03;;;15.70;99.90;;;;;;4992737;28;20042;-77
2022/07/17 05:23:14;;;;;;;5.45;1.98;;;15.80;99.90;;;;;;4992930;28;20046;-77
2022/07/17 05:25:43;;;;;;;4.03;2.17;;;16.00;99.90;;;;;;4992408;28;20069;-77
2022/07/17 05:28:11;;;;;;;4.55;2.00;;;16.10;99.90;;;;;;4990811;28;20129;-76
2022/07/17 05:30:39;;;;;;;7.05;2.22;;;16.20;99.90;;;;;;4991660;28;20073;-76
2022/07/17 05:33:07;;;;;;;3.67;2.13;;;16.30;99.90;;;;;;4991360;28;20522;-76
2022/07/17 05:35:35;;;;;;;2.83;1.80;;;16.50;99.90;;;;;;4991053;28;20056;-76
2022/07/17 05:38:02;;;;;;;3.40;1.70;;;16.70;99.90;;;;;;4974856;28;20435;-76
2022/07/17 05:40:30;;;;;;;3.10;1.73;;;16.90;99.90;;;;;;4992119;28;20506;-74
2022/07/17 05:43:00;;;;;;;4.05;2.10;;;17.30;99.90;;;;;;4992436;28;20046;-76
2022/07/17 05:45:27;;;;;;;4.25;2.15;;;17.70;99.90;;;;;;4992238;28;20414;-77
2022/07/17 05:47:55;;;;;;;4.15;1.90;;;18.20;99.90;;;;;;4991975;28;20055;-76
2022/07/17 05:50:23;;;;;;;4.63;1.80;;;18.70;99.90;;;;;;4991494;28;20093;-77
2022/07/17 05:52:51;;;;;;;1.98;1.88;;;19.10;99.90;;;;;;4991711;28;20046;-76
2022/07/17 05:55:21;;;;;;;7.20;2.47;;;19.50;99.90;;;;;;4990340;28;20061;-76
2022/07/17 05:57:49;;;;;;;4.32;2.20;;;19.90;99.90;;;;;;4992139;28;20046;-76
2022/07/17 06:00:18;;;;;;;3.35;2.22;;;20.40;99.90;;;;;;4992014;28;20145;-77
2022/07/17 06:02:46;;;;;;;6.25;1.70;;;20.90;99.90;;;;;;4991583;28;20049;-76
2022/07/17 06:05:17;;;;;;;3.63;2.13;;;21.20;99.90;;;;;;4991807;28;20054;-74
2022/07/17 06:07:45;;;;;;;3.40;1.67;;;21.70;99.90;;;;;;4991883;28;20077;-76
2022/07/17 06:10:13;;;;;;;3.13;1.85;;;22.40;99.90;;;;;;4991431;28;20105;-76
2022/07/17 06:12:41;;;;;;;4.18;2.10;;;23.00;99.90;;;;;;4991102;28;20280;-76
2022/07/17 06:15:09;;;;;;;3.53;2.00;;;23.20;99.90;;;;;;4991378;28;20054;-76
2022/07/17 06:17:41;;;;;;;1.65;1.42;;;22.50;99.90;;;;;;4990170;28;20104;-77
2022/07/17 06:20:10;;;;;;;1.83;1.25;;;21.80;99.90;;;;;;4990987;28;20080;-75
2022/07/17 06:22:38;;;;;;;5.05;1.50;;;21.00;99.90;;;;;;4990867;28;20581;-75
2022/07/17 06:25:08;;;;;;;4.88;1.55;;;20.50;99.90;;;;;;4991445;28;20046;-79
2022/07/17 06:27:36;;;;;;;4.57;1.50;;;21.00;99.90;;;;;;4990981;28;20062;-76
2022/07/17 06:30:04;;;;;;;6.15;1.70;;;22.00;99.90;;;;;;4989932;28;20050;-76
2022/07/17 06:32:32;;;;;;;6.13;1.48;;;23.10;99.90;;;;;;4990146;28;20116;-77
2022/07/17 06:35:01;;;;;;;1.67;1.40;;;23.80;98.50;;;;;;4989727;28;20046;-76
2022/07/17 06:37:31;;;;;;;4.65;1.45;;;24.10;95.70;;;;;;4990779;28;20050;-77
2022/07/17 06:39:59;;;;;;;6.45;1.30;;;24.00;92.00;;;;;;4991454;28;20109;-76
2022/07/17 06:42:27;;;;;;;3.03;1.55;;;24.10;91.50;;;;;;4991128;28;20093;-77
2022/07/17 06:44:55;;;;;;;4.38;1.15;;;24.20;90.60;;;;;;4989582;28;20581;-77
2022/07/17 06:47:23;;;;;;;1.13;1.05;;;24.20;87.20;;;;;;4991120;28;20047;-77
2022/07/17 06:49:51;;;;;;;6.07;1.25;;;23.50;87.30;;;;;;4991401;28;20585;-76
2022/07/17 06:52:20;;;;;;;4.85;1.08;;;22.60;91.40;;;;;;4991015;28;20064;-76
2022/07/17 06:54:48;;;;;;;4.65;1.30;;;22.20;92.20;;;;;;4990316;28;20058;-77
2022/07/17 06:57:16;;;;;;;5.53;1.40;;;21.60;93.40;;;;;;4989943;28;20054;-77
2022/07/17 06:59:44;;;;;;;4.85;1.40;;;20.90;95.50;;;;;;4990792;28;20058;-77
2022/07/17 07:02:12;;;;;;;4.80;1.08;;;20.50;97.20;;;;;;4991207;28;20054;-78
2022/07/17 07:04:39;;;;;;;5.07;1.00;;;20.20;98.20;;;;;;4991576;28;20060;-76
2022/07/17 07:07:07;;;;;;;2.08;1.20;;;20.10;98.80;;;;;;4990301;28;20058;-75
2022/07/17 07:09:36;;;;;;;2.17;1.40;;;20.10;99.20;;;;;;4973730;28;20047;-77
2022/07/17 07:12:05;;;;;;;6.90;1.40;;;20.30;99.90;;;;;;4990420;28;20534;-78
2022/07/17 07:14:32;;;;;;;2.45;1.15;;;21.20;98.00;;;;;;4989646;28;20519;-76
2022/07/17 07:17:00;;;;;;;3.03;0.90;;;21.50;96.80;;;;;;4991194;28;20053;-77
2022/07/17 07:19:28;;;;;;;1.95;0.90;;;22.50;95.30;;;;;;4991075;28;20141;-77
2022/07/17 07:21:56;;;;;;;2.60;1.20;;;22.70;91.90;;;;;;4990999;28;20055;-77
2022/07/17 07:24:24;;;;;;;3.70;0.82;;;22.20;92.10;;;;;;4990255;28;20046;-77
2022/07/17 07:26:54;;;;;;;5.60;1.88;;;22.70;92.40;;;;;;4973375;28;20050;-78
2022/07/17 07:29:21;;;;;;;3.88;1.05;;;23.00;90.40;;;;;;4989188;28;20093;-77
2022/07/17 07:31:49;;;;;;;2.65;0.70;;;22.60;89.60;;;;;;4975625;28;20042;-76
2022/07/17 07:34:17;;;;;;;2.55;0.75;;;21.80;90.20;;;;;;5003036;28;20035;-76
2022/07/17 07:36:45;;;;;;;2.40;1.00;;;21.50;91.70;;;;;;4990476;28;20339;-77
2022/07/17 07:39:13;;;;;;;3.85;1.20;;;21.60;91.90;;;;;;4976522;28;20651;-79
2022/07/17 07:41:42;;;;;;;8.18;1.77;;;22.00;91.80;;;;;;4981993;28;20055;-77
2022/07/17 07:44:12;;;;;;;2.63;1.00;;;22.40;90.80;;;;;;4990853;28;20047;-76
2022/07/17 07:46:40;;;;;;;7.07;1.30;;;22.50;90.40;;;;;;4991194;28;20077;-77
2022/07/17 07:49:08;;;;;;;6.50;1.52;;;23.30;90.10;;;;;;4985396;28;20049;-76
2022/07/17 07:51:36;;;;;;;5.97;1.73;;;24.60;84.40;;;;;;5006098;28;20046;-77
2022/07/17 07:54:04;;;;;;;4.05;1.30;;;25.70;83.00;;;;;;5008876;28;20069;-77
2022/07/17 07:56:32;;;;;;;4.10;1.00;;;27.00;77.00;;;;;;4994127;28;20156;-77
2022/07/17 07:59:00;;;;;;;2.38;1.35;;;27.50;69.90;;;;;;4994573;28;20046;-77
2022/07/17 08:01:29;;;;;;;1.52;0.70;;;27.20;66.60;;;;;;5002590;28;20042;-76
2022/07/17 08:03:58;;;;;;;4.18;1.50;;;25.80;67.10;;;;;;5009427;28;20046;-76
2022/07/17 08:06:42;;;;;;;1.80;0.80;;;24.50;72.10;;;;;;5011558;28;20049;-77
2022/07/17 08:09:10;;;;;;;2.72;1.10;;;24.20;72.70;;;;;;5011661;28;20053;-76
2022/07/17 08:11:41;;;;;;;1.88;0.75;;;23.70;75.20;;;;;;5011927;28;20086;-76
2022/07/17 08:14:08;;;;;;;2.05;1.15;;;23.10;76.80;;;;;;5012739;28;21061;-78
2022/07/17 08:16:38;;;;;;;3.47;0.90;;;22.60;78.50;;;;;;5009865;28;20042;-78
2022/07/17 08:19:06;;;;;;;1.92;1.00;;;22.30;81.20;;;;;;5002133;28;20054;-81
2022/07/17 08:21:34;;;;;;;5.68;0.93;;;22.70;79.80;;;;;;5011476;28;20050;-78
2022/07/17 08:24:02;;;;;;;5.10;1.10;;;22.40;80.00;;;;;;5012425;28;20092;-80
2022/07/17 08:26:30;;;;;;;2.17;0.95;;;22.70;81.10;;;;;;5014016;28;20109;-82
2022/07/17 08:28:58;;;;;;;1.00;0.63;;;23.70;75.20;;;;;;4996259;28;20141;-81
2022/07/17 08:31:29;;;;;;;2.92;0.70;;;24.10;71.60;;;;;;5011468;28;20049;-83
2022/07/17 08:34:01;;;;;;;1.58;0.80;;;23.50;71.10;;;;;;5011372;28;20053;-82
2022/07/17 08:36:29;;;;;;;2.30;0.73;;;23.30;72.90;;;;;;5013451;28;20052;-83
2022/07/17 08:38:57;;;;;;;1.45;0.75;;;24.60;71.10;;;;;;5013997;28;20046;-83
2022/07/17 08:41:27;;;;;;;2.60;0.70;;;26.10;68.40;;;;;;5012898;28;20046;-82
2022/07/17 08:43:57;;;;;;;6.80;0.80;;;27.60;64.30;;;;;;5012257;28;20136;-82
2022/07/17 08:46:26;;;;;;;2.55;0.70;;;28.70;60.80;;;;;;5009097;28;20100;-85
2022/07/17 08:49:00;;;;;;;2.45;1.00;;;29.80;56.10;;;;;;5011849;28;20422;-82
2022/07/17 08:51:28;;;;;;;2.05;1.00;;;30.30;55.10;;;;;;5010754;28;20050;-82
2022/07/17 08:53:58;;;;;;;2.25;0.75;;;31.00;52.80;;;;;;5011509;28;20049;-83
2022/07/17 08:56:26;;;;;;;1.30;0.98;;;31.50;51.20;;;;;;4993926;28;20430;-82
2022/07/17 08:58:56;;;;;;;1.60;0.60;;;32.10;49.80;;;;;;4999691;28;20129;-81
2022/07/17 09:01:25;;;;;;;2.05;0.68;;;32.40;49.10;;;;;;5000221;28;20049;-82
2022/07/17 09:04:05;;;;;;;2.85;0.68;;;32.20;47.90;;;;;;5027432;28;20053;-83
2022/07/17 09:06:35;;;;;;;3.35;0.65;;;31.70;47.90;;;;;;4993906;28;20054;-83
2022/07/17 09:09:09;;;;;;;2.88;1.02;;;30.50;47.70;;;;;;4987402;28;20531;-82
2022/07/17 09:11:50;;;;;;;2.25;0.70;;;30.30;49.10;;;;;;4993910;28;20054;-82
2022/07/17 09:14:21;;;;;;;1.33;1.10;;;30.80;48.80;;;;;;4976562;28;20078;-81
2022/07/17 09:16:54;;;;;;;1.13;0.90;;;31.00;48.60;;;;;;5013564;28;20062;-82
2022/07/17 09:19:32;;;;;;;2.95;1.65;;;31.50;47.60;;;;;;5014091;28;20477;-82
2022/07/17 09:22:09;;;;;;;4.80;2.45;;;32.00;46.20;;;;;;5013089;28;20053;-82
2022/07/17 09:24:49;;;;;;;2.80;1.10;;;31.50;46.60;;;;;;5013983;28;20072;-82
2022/07/17 09:27:30;;;;;;;0.70;0.65;;;30.30;48.50;;;;;;5021739;28;20064;-83
2022/07/17 09:30:01;;;;;;;1.45;0.68;;;30.30;49.00;;;;;;5000427;28;20053;-82
2022/07/17 09:32:36;;;;;;;2.38;0.50;;;30.60;49.00;;;;;;5034902;28;20054;-84
2022/07/17 09:35:09;;;;;;;2.47;1.17;;;30.40;48.20;;;;;;5023874;28;20547;-82
2022/07/17 09:37:39;;;;;;;1.25;0.57;;;30.80;48.60;;;;;;5012500;28;20050;-81
2022/07/17 09:41:09;;;;;;;2.28;0.52;;;31.40;46.70;;;;;;4994750;28;20069;-82
2022/07/17 09:43:04;;;;;;;2.63;0.50;;;32.10;45.10;;;;;;5012914;28;20053;-82
2022/07/17 09:45:36;;;;;;;0.90;0.70;;;32.20;44.70;;;;;;5011874;28;20053;-81
2022/07/17 09:48:04;;;;;;;;;;;32.50;45.00;;;;;;5013696;28;20157;-80
2022/07/17 09:50:37;;;;;;;4.93;1.13;;;32.70;45.60;;;;;;4995659;28;19925;-82
2022/07/17 09:53:06;;;;;;;4.30;2.38;;;33.00;45.80;;;;;;5014365;28;20498;-82
2022/07/17 09:55:34;;;;;;;20.27;18.35;;;32.50;46.00;;;;;;5013820;28;20464;-82
2022/07/17 09:58:04;;;;;;;3.83;1.52;;;33.00;45.10;;;;;;4997740;28;20125;-82
2022/07/17 10:00:36;;;;;;;3.85;1.23;;;33.70;43.60;;;;;;5013697;28;20109;-83
2022/07/17 10:03:05;;;;;;;;;;;33.80;42.60;;;;;;5012354;28;20057;-81
2022/07/17 10:05:35;;;;;;;0.70;0.65;;;33.60;42.50;;;;;;5012522;28;19925;-81
2022/07/17 10:08:04;;;;;;;4.57;0.80;;;33.30;42.50;;;;;;5011784;28;20053;-80
2022/07/17 10:10:32;;;;;;;7.53;5.40;;;32.60;43.50;;;;;;4994829;28;20120;-81
2022/07/17 10:13:00;;;;;;;5.72;1.20;;;31.20;45.90;;;;;;5010007;28;20478;-82
2022/07/17 10:15:29;;;;;;;11.40;1.33;;;30.30;49.50;;;;;;4986522;28;20042;-83
2022/07/17 10:18:07;;;;;;;9.02;0.80;;;30.30;50.30;;;;;;5010027;28;20477;-83
2022/07/17 10:20:36;;;;;;;6.22;1.13;;;28.90;52.20;;;;;;5008877;28;20514;-83
2022/07/17 10:23:14;;;;;;;14.02;1.50;;;27.10;54.50;;;;;;5011544;28;20057;-82
2022/07/17 10:25:43;;;;;;;32.13;1.33;;;25.60;56.50;;;;;;5011233;28;20046;-81
2022/07/17 10:28:13;;;;;;;4.65;0.77;;;24.10;59.80;;;;;;5007106;28;20037;-82
2022/07/17 10:30:46;;;;;;;5.20;0.75;;;23.00;63.90;;;;;;5023365;28;20053;-82
2022/07/17 10:33:18;;;;;;;1.70;1.13;;;22.30;66.40;;;;;;5014204;28;20053;-80
2022/07/17 10:35:49;;;;;;;4.00;1.35;;;21.70;68.90;;;;;;5031904;28;20605;-82
2022/07/17 10:38:17;;;;;;;4.40;1.25;;;21.30;70.70;;;;;;5022720;28;20046;-79
2022/07/17 10:40:45;;;;;;;12.95;7.68;;;20.50;73.20;;;;;;5009700;28;20057;-80
2022/07/17 10:43:13;;;;;;;5.40;0.85;;;20.00;76.30;;;;;;5011208;28;20899;-81
2022/07/17 10:45:43;;;;;;;3.35;0.80;;;19.60;79.30;;;;;;5006438;28;20050;-81
2022/07/17 10:48:14;;;;;;;3.80;0.93;;;19.20;85.60;;;;;;4970095;28;20041;-81
2022/07/17 10:50:46;;;;;;;2.75;0.80;;;18.80;90.20;;;;;;4987413;28;20046;-79
2022/07/17 10:53:23;;;;;;;0.70;0.60;;;18.50;94.40;;;;;;5004556;28;20112;-80
2022/07/17 10:55:54;;;;;;;1.20;0.80;;;18.20;99.70;;;;;;5006123;28;20060;-79
2022/07/17 10:58:29;;;;;;;0.85;0.60;;;17.90;99.90;;;;;;5004755;28;20522;-81
2022/07/17 11:01:04;;;;;;;2.30;0.65;;;17.80;99.90;;;;;;5006613;28;20100;-79
2022/07/17 11:03:38;;;;;;;4.53;1.58;;;17.80;99.90;;;;;;5005328;28;20050;-81
2022/07/17 11:06:16;;;;;;;1.20;0.70;;;17.80;99.90;;;;;;5006591;28;20057;-81
2022/07/17 11:08:48;;;;;;;0.60;0.40;;;17.90;99.90;;;;;;5006427;28;20045;-81
2022/07/17 11:11:18;;;;;;;2.72;0.45;;;18.10;99.90;;;;;;4990815;28;20085;-82
2022/07/17 11:13:47;;;;;;;0.95;0.47;;;18.40;99.90;;;;;;5008247;28;20065;-81
2022/07/17 11:16:26;;;;;;;1.80;0.93;;;19.00;99.90;;;;;;5005903;28;20137;-80
2022/07/17 11:18:58;;;;;;;3.00;1.25;;;19.60;99.90;;;;;;4989747;28;20102;-81
2022/07/17 11:21:26;;;;;;;2.10;0.80;;;21.10;99.90;;;;;;4988171;28;20087;-80
2022/07/17 11:23:57;;;;;;;7.50;0.90;;;22.40;97.70;;;;;;5005923;28;20073;-80
2022/07/17 11:26:28;;;;;;;3.75;1.30;;;24.00;92.10;;;;;;4986388;28;20053;-80
2022/07/17 11:28:58;;;;;;;4.80;1.20;;;25.10;83.00;;;;;;4988691;28;20102;-80
2022/07/17 11:31:30;;;;;;;8.32;1.00;;;25.60;77.80;;;;;;4990478;28;20406;-81
2022/07/17 11:34:03;;;;;;;9.38;1.00;;;26.50;73.00;;;;;;4992621;28;20471;-81
2022/07/17 11:36:33;;;;;;;7.50;1.00;;;26.20;71.00;;;;;;4990925;28;20046;-80
2022/07/17 11:39:06;;;;;;;5.07;1.02;;;25.90;69.80;;;;;;4993950;28;20050;-81
2022/07/17 11:41:35;;;;;;;;;;;24.80;72.40;;;;;;5008587;28;20073;-80
2022/07/17 11:44:04;;;;;;;10.23;1.00;;;23.80;75.40;;;;;;5010058;28;19932;-80
2022/07/17 11:46:34;;;;;;;2.03;0.50;;;22.90;79.70;;;;;;5008757;28;20050;-81
2022/07/17 11:49:07;;;;;;;0.60;0.60;;;22.40;82.80;;;;;;5011232;28;20053;-80
2022/07/17 11:51:43;;;;;;;2.60;0.60;;;21.80;86.20;;;;;;5009569;28;20307;-81
2022/07/17 11:54:18;;;;;;;0.63;0.60;;;21.40;90.00;;;;;;5010759;28;20080;-81
2022/07/17 11:56:55;;;;;;;2.17;0.50;;;21.00;92.90;;;;;;5009746;28;20506;-82
2022/07/17 11:59:29;;;;;;;0.88;0.70;;;20.60;94.30;;;;;;5013393;28;20058;-81
2022/07/17 12:01:57;;;;;;;3.50;1.10;;;20.20;97.00;;;;;;5009267;28;20084;-79
2022/07/17 12:04:25;;;;;;;4.05;0.82;;;19.90;99.90;;;;;;4990750;28;20556;-82
2022/07/17 12:07:01;;;;;;;0.88;0.70;;;19.60;99.90;;;;;;5008651;28;20381;-82
2022/07/17 12:09:33;;;;;;;2.70;1.20;;;19.40;99.90;;;;;;4992222;28;20643;-81
2022/07/17 12:12:02;;;;;;;1.05;0.90;;;19.20;99.90;;;;;;4990650;28;20080;-80
2022/07/17 12:14:30;;;;;;;1.35;1.02;;;19.20;99.90;;;;;;5007662;28;20056;-81
2022/07/17 12:17:05;;;;;;;1.75;0.80;;;19.10;99.90;;;;;;5002656;28;20057;-82
2022/07/17 12:19:33;;;;;;;2.38;1.00;;;19.00;99.90;;;;;;5014681;28;20050;-82
2022/07/17 12:22:03;;;;;;;0.98;0.88;;;19.20;99.90;;;;;;5015181;28;20430;-81
2022/07/17 12:24:37;;;;;;;0.88;0.88;;;19.30;99.90;;;;;;5012043;28;20482;-81
2022/07/17 12:27:09;;;;;;;4.60;0.75;;;19.50;99.90;;;;;;4990769;28;20050;-82
2022/07/17 12:29:37;;;;;;;4.03;0.70;;;19.50;99.90;;;;;;5008540;28;20141;-81
2022/07/17 12:32:07;;;;;;;3.20;0.63;;;19.30;99.90;;;;;;5009219;28;20050;-81
2022/07/17 12:34:37;;;;;;;4.57;0.70;;;19.30;99.90;;;;;;5012228;28;20046;-81
2022/07/17 12:37:06;;;;;;;1.67;0.68;;;19.30;99.90;;;;;;4988236;28;20053;-81
2022/07/17 12:39:35;;;;;;;3.70;0.90;;;19.30;99.90;;;;;;5010272;28;20046;-81
2022/07/17 12:42:03;;;;;;;1.20;0.65;;;19.30;99.90;;;;;;5014404;28;20072;-81
2022/07/17 12:44:31;;;;;;;3.80;0.68;;;19.50;99.90;;;;;;5031007;28;20054;-80
2022/07/17 12:47:00;;;;;;;1.65;0.55;;;19.70;99.90;;;;;;5024255;28;20092;-81
2022/07/17 12:49:28;;;;;;;1.80;1.30;;;19.80;99.90;;;;;;5004028;28;20152;-81
2022/07/17 12:51:56;;;;;;;6.18;1.42;;;19.80;99.90;;;;;;5008668;28;20065;-80
2022/07/17 12:54:26;;;;;;;1.98;0.80;;;19.70;99.90;;;;;;5010389;28;20616;-81
2022/07/17 12:56:55;;;;;;;2.13;0.70;;;19.60;99.90;;;;;;5007466;28;20489;-80
2022/07/17 12:59:23;;;;;;;1.45;0.85;;;19.60;99.90;;;;;;5007910;28;20054;-82